createdAt,value
2018-10-07T00:00:57.663Z,5.23
2018-10-07T00:03:24.968Z,5.43
2018-10-07T00:08:25.743Z,5.77
2018-10-07T00:10:53.046Z,5.60
2018-10-07T00:13:20.330Z,5.27
2018-10-07T00:15:47.577Z,5.70
2018-10-07T00:18:14.877Z,5.70
2018-10-07T00:20:42.150Z,5.47
2018-10-07T00:23:09.456Z,5.37
2018-10-07T00:25:36.756Z,5.33
2018-10-07T00:28:04.082Z,5.70
2018-10-07T00:30:31.324Z,5.83
2018-10-07T00:32:58.619Z,5.53
2018-10-07T00:35:25.964Z,5.70
2018-10-07T00:37:53.249Z,6.07
2018-10-07T00:40:20.505Z,6.03
2018-10-07T00:42:47.798Z,6.10
2018-10-07T00:45:15.115Z,7.50
2018-10-07T00:47:42.407Z,7.97
2018-10-07T00:50:09.691Z,7.03
2018-10-07T00:52:37.014Z,6.93
2018-10-07T00:55:04.429Z,7.57
2018-10-07T00:57:31.772Z,8.70
2018-10-07T00:59:59.058Z,10.33
2018-10-07T01:02:26.372Z,10.77
2018-10-07T01:04:53.656Z,10.30
2018-10-07T01:07:20.936Z,10.83
2018-10-07T01:09:48.182Z,11.67
2018-10-07T01:12:15.467Z,12.80
2018-10-07T01:14:42.770Z,12.30
2018-10-07T01:17:10.140Z,13.23
2018-10-07T01:19:37.479Z,11.00
2018-10-07T01:22:04.816Z,12.37
2018-10-07T01:24:32.102Z,13.50
2018-10-07T01:26:59.389Z,13.57
2018-10-07T01:29:26.668Z,13.07
2018-10-07T01:31:53.964Z,14.37
2018-10-07T01:34:21.220Z,13.80
2018-10-07T01:36:48.556Z,13.53
2018-10-07T01:39:15.806Z,14.43
2018-10-07T01:41:43.050Z,16.30
2018-10-07T01:44:10.442Z,16.43
2018-10-07T01:46:37.703Z,16.67
2018-10-07T01:49:05.025Z,17.10
2018-10-07T01:51:32.243Z,18.10
2018-10-07T01:53:59.539Z,17.67
2018-10-07T01:56:26.814Z,19.17
2018-10-07T01:58:54.099Z,18.23
2018-10-07T02:01:21.369Z,18.53
2018-10-07T02:03:48.629Z,19.60
2018-10-07T02:06:16.017Z,18.07
2018-10-07T02:08:43.328Z,18.63
2018-10-07T02:11:10.643Z,21.10
2018-10-07T02:13:37.883Z,21.47
2018-10-07T02:16:05.133Z,22.03
2018-10-07T02:18:32.394Z,22.93
2018-10-07T02:20:59.641Z,22.37
2018-10-07T02:23:26.985Z,23.17
2018-10-07T02:25:54.301Z,25.53
2018-10-07T02:28:21.671Z,25.57
2018-10-07T02:30:48.919Z,26.90
2018-10-07T02:33:16.180Z,27.33
2018-10-07T02:35:43.494Z,28.77
2018-10-07T02:38:10.813Z,27.67
2018-10-07T02:40:40.289Z,28.87
2018-10-07T02:43:07.524Z,28.57
2018-10-07T02:45:34.850Z,28.70
2018-10-07T02:48:02.104Z,28.73
2018-10-07T02:50:29.402Z,29.87
2018-10-07T02:52:56.818Z,29.57
2018-10-07T02:55:29.102Z,31.03
2018-10-07T02:57:57.092Z,32.93
2018-10-07T03:00:24.368Z,32.63
2018-10-07T03:02:52.062Z,34.73
2018-10-07T03:05:19.360Z,35.77
2018-10-07T03:07:47.270Z,36.93
2018-10-07T03:10:14.533Z,37.70
2018-10-07T03:12:42.073Z,39.60
2018-10-07T03:15:09.423Z,40.63
2018-10-07T03:17:36.763Z,38.23
2018-10-07T03:20:04.080Z,44.60
2018-10-07T03:22:31.407Z,42.13
2018-10-07T03:24:58.768Z,41.83
2018-10-07T03:27:26.047Z,43.33
2018-10-07T03:29:53.595Z,46.77
2018-10-07T03:32:20.863Z,50.43
2018-10-07T03:34:48.131Z,47.20
2018-10-07T03:37:15.528Z,48.90
2018-10-07T03:39:42.813Z,55.00
2018-10-07T03:42:10.289Z,48.33
2018-10-07T03:44:37.588Z,47.70
2018-10-07T03:47:04.926Z,49.77
2018-10-07T03:49:32.163Z,52.20
2018-10-07T03:51:59.451Z,51.57
2018-10-07T03:54:27.109Z,51.80
2018-10-07T03:56:54.770Z,51.83
2018-10-07T03:59:22.258Z,47.83
2018-10-07T04:01:49.526Z,55.63
2018-10-07T04:04:16.839Z,51.63
2018-10-07T04:06:44.052Z,51.27
2018-10-07T04:09:12.237Z,48.27
2018-10-07T04:11:40.466Z,43.17
2018-10-07T04:14:07.941Z,49.73
2018-10-07T04:16:35.291Z,46.43
2018-10-07T04:19:02.573Z,45.37
2018-10-07T04:21:29.856Z,42.67
2018-10-07T04:23:57.127Z,40.60
2018-10-07T04:26:24.456Z,42.70
2018-10-07T04:28:51.711Z,41.03
2018-10-07T04:31:19.018Z,39.60
2018-10-07T04:33:46.303Z,40.30
2018-10-07T04:36:13.780Z,35.20
2018-10-07T04:38:41.032Z,34.47
2018-10-07T04:41:08.271Z,33.13
2018-10-07T04:43:35.527Z,29.00
2018-10-07T04:46:02.751Z,29.33
2018-10-07T04:48:30.097Z,27.50
2018-10-07T04:50:57.399Z,27.07
2018-10-07T04:53:24.839Z,28.07
2018-10-07T04:55:52.115Z,30.20
2018-10-07T04:58:25.908Z,27.17
2018-10-07T05:00:53.403Z,22.13
2018-10-07T05:03:20.809Z,18.50
2018-10-07T05:05:48.585Z,17.43
2018-10-07T05:08:15.887Z,17.13
2018-10-07T05:10:48.059Z,16.47
2018-10-07T05:13:19.039Z,15.20
2018-10-07T05:15:48.091Z,15.50
2018-10-07T05:18:15.391Z,13.60
2018-10-07T05:20:42.657Z,12.90
2018-10-07T05:23:09.988Z,11.63
2018-10-07T05:25:37.239Z,10.57
2018-10-07T05:28:04.555Z,9.93
2018-10-07T05:30:31.824Z,9.30
2018-10-07T05:32:59.249Z,9.00
2018-10-07T05:35:26.787Z,8.33
2018-10-07T05:37:54.117Z,9.07
2018-10-07T05:40:21.397Z,10.47
2018-10-07T05:42:48.661Z,10.50
2018-10-07T05:45:15.960Z,9.73
2018-10-07T05:47:43.216Z,9.93
2018-10-07T05:50:10.492Z,9.93
2018-10-07T05:52:37.756Z,9.70
2018-10-07T05:55:05.077Z,8.93
2018-10-07T05:57:32.391Z,9.37
2018-10-07T05:59:59.764Z,9.97
2018-10-07T06:02:27.536Z,10.50
2018-10-07T06:04:55.849Z,9.17
2018-10-07T06:07:23.852Z,9.07
2018-10-07T06:09:51.155Z,9.93
2018-10-07T06:12:18.445Z,9.33
2018-10-07T06:14:57.285Z,8.63
2018-10-07T06:17:24.503Z,9.93
2018-10-07T06:19:51.778Z,10.40
2018-10-07T06:22:19.019Z,11.10
2018-10-07T06:24:46.291Z,10.70
2018-10-07T06:27:13.556Z,10.10
2018-10-07T06:29:40.859Z,11.20
2018-10-07T06:32:08.174Z,9.93
2018-10-07T06:34:35.472Z,11.50
2018-10-07T06:37:02.739Z,10.73
2018-10-07T06:39:30.014Z,10.37
2018-10-07T06:41:57.269Z,10.20
2018-10-07T06:44:24.575Z,8.90
2018-10-07T06:46:51.893Z,8.07
2018-10-07T06:49:19.493Z,8.17
2018-10-07T06:51:46.759Z,7.67
2018-10-07T06:54:14.435Z,7.43
2018-10-07T06:56:41.801Z,6.53
2018-10-07T06:59:09.187Z,5.60
2018-10-07T07:01:36.463Z,6.60
2018-10-07T07:04:03.768Z,7.27
2018-10-07T07:06:31.113Z,4.90
2018-10-07T07:08:58.375Z,4.90
2018-10-07T07:11:25.686Z,4.80
2018-10-07T07:13:53.018Z,4.33
2018-10-07T07:16:20.290Z,4.37
2018-10-07T07:18:47.630Z,4.17
2018-10-07T07:21:14.970Z,4.13
2018-10-07T07:23:42.216Z,4.10
2018-10-07T07:26:09.550Z,4.03
2018-10-07T07:28:36.790Z,4.03
2018-10-07T07:31:04.090Z,3.67
2018-10-07T07:33:31.431Z,3.43
2018-10-07T07:35:58.751Z,3.40
2018-10-07T07:38:26.038Z,2.93
2018-10-07T07:40:53.572Z,2.83
2018-10-07T07:43:20.946Z,2.90
2018-10-07T07:45:48.283Z,2.83
2018-10-07T07:48:15.687Z,2.50
2018-10-07T07:50:43.036Z,2.57
2018-10-07T07:53:10.330Z,2.60
2018-10-07T07:55:37.675Z,2.00
2018-10-07T07:58:04.953Z,2.30
2018-10-07T08:00:32.325Z,2.03
2018-10-07T08:02:59.607Z,1.90
2018-10-07T08:05:26.947Z,1.80
2018-10-07T08:07:54.256Z,2.10
2018-10-07T08:10:21.536Z,2.10
2018-10-07T08:12:48.857Z,1.97
2018-10-07T08:15:16.161Z,1.80
2018-10-07T08:17:43.519Z,2.20
2018-10-07T08:20:10.831Z,1.87
2018-10-07T08:22:38.167Z,1.80
2018-10-07T08:25:05.474Z,1.93
2018-10-07T08:27:32.748Z,1.90
2018-10-07T08:30:00.035Z,1.90
2018-10-07T08:32:27.331Z,1.90
2018-10-07T08:34:54.621Z,2.00
2018-10-07T08:37:21.965Z,2.03
2018-10-07T08:39:49.263Z,1.70
2018-10-07T08:42:16.503Z,2.00
2018-10-07T08:44:43.879Z,1.80
2018-10-07T08:47:11.228Z,1.90
2018-10-07T08:49:38.633Z,1.90
2018-10-07T08:52:05.893Z,1.90
2018-10-07T08:54:33.250Z,1.80
2018-10-07T08:57:00.798Z,2.00
2018-10-07T08:59:28.137Z,1.90
2018-10-07T09:01:55.559Z,2.07
2018-10-07T09:04:23.156Z,1.87
2018-10-07T09:06:50.401Z,1.80
2018-10-07T09:09:17.683Z,1.40
2018-10-07T09:11:45.040Z,1.50
2018-10-07T09:14:12.404Z,1.40
2018-10-07T09:16:39.974Z,1.80
2018-10-07T09:19:07.374Z,1.40
2018-10-07T09:21:34.952Z,1.30
2018-10-07T09:24:02.499Z,1.37
2018-10-07T09:26:29.797Z,1.30
2018-10-07T09:28:57.177Z,1.30
2018-10-07T09:31:24.526Z,1.57
2018-10-07T09:33:51.956Z,1.33
2018-10-07T09:36:19.404Z,1.20
2018-10-07T09:38:46.757Z,1.20
2018-10-07T09:41:14.072Z,1.27
2018-10-07T09:43:41.369Z,1.10
2018-10-07T09:46:08.721Z,1.30
2018-10-07T09:48:36.055Z,1.23
2018-10-07T09:51:03.669Z,1.17
2018-10-07T09:53:31.019Z,1.50
2018-10-07T09:55:58.378Z,1.13
2018-10-07T09:58:25.735Z,1.30
2018-10-07T10:00:53.109Z,1.30
2018-10-07T10:03:20.461Z,1.40
2018-10-07T10:05:47.727Z,1.27
2018-10-07T10:08:15.031Z,1.73
2018-10-07T10:10:42.423Z,1.80
2018-10-07T10:13:10.083Z,2.03
2018-10-07T10:15:37.406Z,1.80
2018-10-07T10:18:06.134Z,1.73
2018-10-07T10:21:12.095Z,1.90
2018-10-07T10:23:49.066Z,1.60
2018-10-07T10:26:20.825Z,1.80
2018-10-07T10:28:51.617Z,1.80
2018-10-07T10:31:22.751Z,1.67
2018-10-07T10:33:55.474Z,1.50
2018-10-07T10:36:32.426Z,1.50
2018-10-07T10:39:10.142Z,1.50
2018-10-07T10:41:42.726Z,1.70
2018-10-07T10:44:17.601Z,1.50
2018-10-07T10:46:55.749Z,1.80
2018-10-07T10:51:35.847Z,1.57
2018-10-07T10:54:09.052Z,1.40
2018-10-07T10:56:39.615Z,2.00
2018-10-07T10:59:10.567Z,1.50
2018-10-07T11:02:53.670Z,1.43
2018-10-07T11:05:30.353Z,1.40
2018-10-07T11:10:07.667Z,1.10
2018-10-07T11:12:41.268Z,1.20
2018-10-07T11:15:17.139Z,1.40
2018-10-07T11:18:04.979Z,1.10
2018-10-07T11:20:56.867Z,1.30
2018-10-07T11:24:01.057Z,1.37
2018-10-07T11:26:41.361Z,1.40
2018-10-07T11:29:20.093Z,1.03
2018-10-07T11:31:55.986Z,1.03
2018-10-07T11:35:01.977Z,1.30
2018-10-07T11:37:47.476Z,1.40
2018-10-07T11:40:26.195Z,1.27
2018-10-07T11:43:16.104Z,1.17
2018-10-07T11:45:48.725Z,1.10
2018-10-07T11:48:28.199Z,1.20
2018-10-07T11:51:05.273Z,1.20
2018-10-07T11:54:09.124Z,1.20
2018-10-07T11:56:36.731Z,1.40
2018-10-07T11:59:04.337Z,1.10
2018-10-07T12:01:31.671Z,1.40
2018-10-07T12:03:58.956Z,1.57
2018-10-07T12:06:26.313Z,1.80
2018-10-07T12:08:53.616Z,1.17
2018-10-07T12:11:20.920Z,0.80
2018-10-07T12:13:48.196Z,1.33
2018-10-07T12:16:15.554Z,0.97
2018-10-07T12:18:42.943Z,1.13
2018-10-07T12:21:10.312Z,0.90
2018-10-07T12:23:37.679Z,1.03
2018-10-07T12:26:04.964Z,0.93
2018-10-07T12:28:32.292Z,0.80
2018-10-07T12:30:59.605Z,1.00
2018-10-07T12:33:26.956Z,0.90
2018-10-07T12:35:54.252Z,0.60
2018-10-07T12:38:21.734Z,1.00
2018-10-07T12:40:49.065Z,1.20
2018-10-07T12:43:16.345Z,1.00
2018-10-07T12:45:43.649Z,1.10
2018-10-07T12:48:11.091Z,1.23
2018-10-07T12:50:38.495Z,0.80
2018-10-07T12:53:05.855Z,1.00
2018-10-07T12:55:33.324Z,0.80
2018-10-07T12:58:00.751Z,0.97
2018-10-07T13:00:28.060Z,1.00
2018-10-07T13:02:55.397Z,0.90
2018-10-07T13:05:22.780Z,1.10
2018-10-07T13:07:50.152Z,1.00
2018-10-07T13:10:17.487Z,0.80
2018-10-07T13:12:44.819Z,0.80
2018-10-07T13:15:12.146Z,1.10
2018-10-07T13:17:39.473Z,0.90
2018-10-07T13:20:06.830Z,1.00
2018-10-07T13:22:34.137Z,0.40
2018-10-07T13:25:01.569Z,1.30
2018-10-07T13:27:28.927Z,1.10
2018-10-07T13:29:56.303Z,1.33
2018-10-07T13:32:24.497Z,0.73
2018-10-07T13:34:51.787Z,0.90
2018-10-07T13:37:19.056Z,0.90
2018-10-07T13:39:46.398Z,1.10
2018-10-07T13:42:13.699Z,1.10
2018-10-07T13:44:41.005Z,1.00
2018-10-07T13:47:08.312Z,1.10
2018-10-07T13:49:35.650Z,1.20
2018-10-07T13:52:03.007Z,0.80
2018-10-07T13:54:30.416Z,1.00
2018-10-07T13:56:57.718Z,1.10
2018-10-07T13:59:24.995Z,1.10
2018-10-07T14:01:52.343Z,0.80
2018-10-07T14:04:19.635Z,0.90
2018-10-07T14:06:47.024Z,1.00
2018-10-07T14:09:14.294Z,1.17
2018-10-07T14:11:43.055Z,1.00
2018-10-07T14:14:10.381Z,1.03
2018-10-07T14:16:37.669Z,1.00
2018-10-07T14:19:04.971Z,0.90
2018-10-07T14:21:32.278Z,1.00
2018-10-07T14:23:59.605Z,1.03
2018-10-07T14:26:26.915Z,0.97
2018-10-07T14:28:54.247Z,1.03
2018-10-07T14:31:21.579Z,0.90
2018-10-07T14:33:48.892Z,1.10
2018-10-07T14:36:16.887Z,1.10
2018-10-07T14:38:44.125Z,1.17
2018-10-07T14:41:11.529Z,1.20
2018-10-07T14:43:38.795Z,1.10
2018-10-07T14:46:06.067Z,0.80
2018-10-07T14:48:33.631Z,1.00
2018-10-07T14:51:00.896Z,2.83
2018-10-07T14:53:28.258Z,1.50
2018-10-07T14:55:55.591Z,2.00
2018-10-07T14:58:22.949Z,1.17
2018-10-07T15:00:50.313Z,1.13
2018-10-07T15:03:17.606Z,1.90
2018-10-07T15:05:44.960Z,1.07
2018-10-07T15:08:12.286Z,1.27
2018-10-07T15:10:39.697Z,1.17
2018-10-07T15:13:07.067Z,0.87
2018-10-07T15:15:34.416Z,1.00
2018-10-07T15:18:01.691Z,1.53
2018-10-07T15:20:29.177Z,1.20
2018-10-07T15:22:56.495Z,1.10
2018-10-07T15:25:23.841Z,1.30
2018-10-07T15:27:51.219Z,1.17
2018-10-07T15:30:18.530Z,1.33
2018-10-07T15:32:45.826Z,1.10
2018-10-07T15:35:13.202Z,1.17
2018-10-07T15:37:40.488Z,1.20
2018-10-07T15:40:07.792Z,1.30
2018-10-07T15:42:35.136Z,1.60
2018-10-07T15:45:02.421Z,1.30
2018-10-07T15:47:29.807Z,1.30
2018-10-07T15:49:57.122Z,1.40
2018-10-07T15:52:24.450Z,1.20
2018-10-07T15:54:51.832Z,1.37
2018-10-07T15:57:19.150Z,1.30
2018-10-07T15:59:46.469Z,1.53
2018-10-07T16:02:13.893Z,1.10
2018-10-07T16:04:41.241Z,1.50
2018-10-07T16:07:08.566Z,0.90
2018-10-07T16:09:35.893Z,1.60
2018-10-07T16:12:03.221Z,5.10
2018-10-07T16:14:30.490Z,5.73
2018-10-07T16:16:57.841Z,2.63
2018-10-07T16:19:25.108Z,2.20
2018-10-07T16:21:52.429Z,1.60
2018-10-07T16:24:19.833Z,2.00
2018-10-07T16:26:47.228Z,3.00
2018-10-07T16:29:14.531Z,2.87
2018-10-07T16:31:41.836Z,2.50
2018-10-07T16:34:09.226Z,1.50
2018-10-07T16:36:36.502Z,1.30
2018-10-07T16:39:05.139Z,1.93
2018-10-07T16:41:33.429Z,1.80
2018-10-07T16:44:01.217Z,1.90
2018-10-07T16:46:28.561Z,2.10
2018-10-07T16:48:55.883Z,2.30
2018-10-07T16:51:23.157Z,2.10
2018-10-07T16:53:50.572Z,1.90
2018-10-07T16:56:17.836Z,1.73
2018-10-07T16:58:45.411Z,1.70
2018-10-07T17:01:12.693Z,1.97
2018-10-07T17:03:40.002Z,2.17
2018-10-07T17:06:07.354Z,1.97
2018-10-07T17:08:34.615Z,2.17
2018-10-07T17:11:01.958Z,2.40
2018-10-07T17:13:29.373Z,3.53
2018-10-07T17:15:56.600Z,4.00
2018-10-07T17:18:23.933Z,5.10
2018-10-07T17:20:51.212Z,7.43
2018-10-07T17:23:18.499Z,12.60
2018-10-07T17:25:45.781Z,8.30
2018-10-07T17:28:13.099Z,7.40
2018-10-07T17:30:43.921Z,4.33
2018-10-07T17:33:11.412Z,3.97
2018-10-07T17:35:39.013Z,2.40
2018-10-07T17:38:06.733Z,2.27
2018-10-07T17:40:34.029Z,1.97
2018-10-07T17:43:01.303Z,1.63
2018-10-07T17:45:28.611Z,2.00
2018-10-07T17:47:55.925Z,2.03
2018-10-07T17:50:23.230Z,1.60
2018-10-07T17:52:50.997Z,1.80
2018-10-07T17:55:18.289Z,2.00
2018-10-07T17:57:45.573Z,1.90
2018-10-07T18:00:13.619Z,1.47
2018-10-07T18:02:41.059Z,1.90
2018-10-07T18:05:08.520Z,1.73
2018-10-07T18:07:35.791Z,2.20
2018-10-07T18:10:03.088Z,1.90
2018-10-07T18:12:30.452Z,2.13
2018-10-07T18:14:57.771Z,2.13
2018-10-07T18:17:25.245Z,1.80
2018-10-07T18:19:52.538Z,1.87
2018-10-07T18:22:19.945Z,2.10
2018-10-07T18:24:47.204Z,2.13
2018-10-07T18:27:14.556Z,1.93
2018-10-07T18:29:41.870Z,2.00
2018-10-07T18:32:09.225Z,3.20
2018-10-07T18:34:36.612Z,4.00
2018-10-07T18:37:04.029Z,3.93
2018-10-07T18:39:31.353Z,4.20
2018-10-07T18:41:58.678Z,4.03
2018-10-07T18:44:25.954Z,4.10
2018-10-07T18:46:53.313Z,3.17
2018-10-07T18:49:20.679Z,3.13
2018-10-07T18:51:48.058Z,3.00
2018-10-07T18:54:15.347Z,3.30
2018-10-07T18:56:42.676Z,2.93
2018-10-07T18:59:09.949Z,2.80
2018-10-07T19:01:37.323Z,2.53
2018-10-07T19:04:04.661Z,3.20
2018-10-07T19:06:32.001Z,3.37
2018-10-07T19:08:59.295Z,3.03
2018-10-07T19:11:26.665Z,3.20
2018-10-07T19:13:54.009Z,2.90
2018-10-07T19:16:21.357Z,2.87
2018-10-07T19:18:48.785Z,3.20
2018-10-07T19:21:16.136Z,3.20
2018-10-07T19:23:43.525Z,3.53
2018-10-07T19:26:10.847Z,3.83
2018-10-07T19:28:38.186Z,3.97
2018-10-07T19:31:05.585Z,4.03
2018-10-07T19:33:32.920Z,3.27
2018-10-07T19:36:00.258Z,3.57
2018-10-07T19:38:27.558Z,3.40
2018-10-07T19:40:54.907Z,3.47
2018-10-07T19:43:22.213Z,3.37
2018-10-07T19:45:49.606Z,3.50
2018-10-07T19:48:16.933Z,3.20
2018-10-07T19:50:44.239Z,3.30
2018-10-07T19:53:11.616Z,3.00
2018-10-07T19:55:38.958Z,3.40
2018-10-07T19:58:06.296Z,3.40
2018-10-07T20:00:33.692Z,3.70
2018-10-07T20:03:01.097Z,3.43
2018-10-07T20:05:28.388Z,3.30
2018-10-07T20:07:55.726Z,3.10
2018-10-07T20:10:23.051Z,3.37
2018-10-07T20:12:50.378Z,3.20
2018-10-07T20:15:17.795Z,2.97
2018-10-07T20:17:45.080Z,3.17
2018-10-07T20:20:12.431Z,2.80
2018-10-07T20:22:39.774Z,2.90
2018-10-07T20:25:07.087Z,3.00
2018-10-07T20:27:34.410Z,3.20
2018-10-07T20:30:01.741Z,3.30
2018-10-07T20:32:29.030Z,3.80
2018-10-07T20:34:56.421Z,3.60
2018-10-07T20:37:23.715Z,3.60
2018-10-07T20:39:51.128Z,3.40
2018-10-07T20:42:18.537Z,3.47
2018-10-07T20:44:45.843Z,3.60
2018-10-07T20:47:13.185Z,3.80
2018-10-07T20:49:40.479Z,3.53
2018-10-07T20:52:07.853Z,3.43
2018-10-07T20:54:35.223Z,3.27
2018-10-07T20:57:02.604Z,3.50
2018-10-07T20:59:29.914Z,3.40
2018-10-07T21:01:57.279Z,3.20
2018-10-07T21:04:24.596Z,3.40
2018-10-07T21:06:51.959Z,3.60
2018-10-07T21:09:19.269Z,3.80
2018-10-07T21:11:46.647Z,3.57
2018-10-07T21:14:14.009Z,3.50
2018-10-07T21:16:41.364Z,3.73
2018-10-07T21:19:08.758Z,4.00
2018-10-07T21:21:36.098Z,3.40
2018-10-07T21:24:03.435Z,3.67
2018-10-07T21:26:30.796Z,3.30
2018-10-07T21:28:58.142Z,4.17
2018-10-07T21:31:25.458Z,5.53
2018-10-07T21:33:52.848Z,5.37
2018-10-07T21:36:20.280Z,5.07
2018-10-07T21:38:47.688Z,4.50
2018-10-07T21:41:14.976Z,3.60
2018-10-07T21:43:42.226Z,3.67
2018-10-07T21:46:09.788Z,3.60
2018-10-07T21:48:37.069Z,3.67
2018-10-07T21:51:04.441Z,3.20
2018-10-07T21:53:31.850Z,3.50
2018-10-07T21:55:59.276Z,3.47
2018-10-07T21:58:26.537Z,3.33
2018-10-07T22:00:53.839Z,3.40
2018-10-07T22:03:21.176Z,3.50
2018-10-07T22:05:48.496Z,3.10
2018-10-07T22:08:15.808Z,3.30
2018-10-07T22:10:43.095Z,3.40
2018-10-07T22:13:10.411Z,3.30
2018-10-07T22:15:37.705Z,3.10
2018-10-07T22:18:05.009Z,3.20
2018-10-07T22:20:32.333Z,2.90
2018-10-07T22:22:59.743Z,2.97
2018-10-07T22:25:27.040Z,3.00
2018-10-07T22:27:54.329Z,3.17
2018-10-07T22:30:21.979Z,3.00
2018-10-07T22:32:49.313Z,3.00
2018-10-07T22:35:16.607Z,2.97
2018-10-07T22:37:43.867Z,2.37
2018-10-07T22:40:11.174Z,2.83
2018-10-07T22:42:38.489Z,2.73
2018-10-07T22:45:05.914Z,2.50
2018-10-07T22:47:33.335Z,2.67
2018-10-07T22:50:00.599Z,2.90
2018-10-07T22:52:27.939Z,2.83
2018-10-07T22:54:55.252Z,3.40
2018-10-07T22:57:22.597Z,3.20
2018-10-07T22:59:49.870Z,3.23
2018-10-07T23:02:17.314Z,3.00
2018-10-07T23:04:44.578Z,2.50
2018-10-07T23:07:11.933Z,3.10
2018-10-07T23:09:39.223Z,3.07
2018-10-07T23:12:06.502Z,2.70
2018-10-07T23:14:33.892Z,3.23
2018-10-07T23:17:01.234Z,2.90
2018-10-07T23:19:28.576Z,2.80
2018-10-07T23:21:55.849Z,3.00
2018-10-07T23:24:23.133Z,3.20
2018-10-07T23:26:50.410Z,2.70
2018-10-07T23:29:17.700Z,3.10
2018-10-07T23:31:45.045Z,3.00
2018-10-07T23:34:12.297Z,3.20
2018-10-07T23:36:39.554Z,2.70
2018-10-07T23:39:08.175Z,2.70
2018-10-07T23:41:35.533Z,3.20
2018-10-07T23:44:02.961Z,3.10
2018-10-07T23:46:30.195Z,3.13
2018-10-07T23:48:57.522Z,3.17
2018-10-07T23:51:24.776Z,3.20
2018-10-07T23:53:52.111Z,3.20
2018-10-07T23:56:19.479Z,3.10
2018-10-07T23:58:46.814Z,3.30
